createdAt,value
2023-12-09T00:02:29.127Z,5.05
2023-12-09T00:07:35.073Z,4.05
2023-12-09T00:12:44.024Z,4.03
2023-12-09T00:17:52.758Z,4.18
2023-12-09T00:22:58.569Z,4.37
2023-12-09T00:28:07.088Z,3.92
2023-12-09T00:33:12.944Z,3.97
2023-12-09T00:38:18.595Z,4.80
2023-12-09T00:43:27.270Z,4.47
2023-12-09T00:48:33.088Z,4.10
2023-12-09T00:53:38.874Z,3.50
2023-12-09T00:58:47.406Z,4.20
2023-12-09T01:03:53.263Z,3.80
2023-12-09T01:09:00.273Z,2.92
2023-12-09T01:14:09.178Z,3.57
2023-12-09T01:19:14.832Z,3.40
2023-12-09T01:24:21.375Z,3.45
2023-12-09T01:29:30.010Z,3.20
2023-12-09T01:34:35.894Z,3.83
2023-12-09T01:39:41.988Z,3.37
2023-12-09T01:44:50.903Z,3.15
2023-12-09T01:49:57.131Z,3.33
2023-12-09T01:55:04.771Z,3.30
2023-12-09T02:00:15.307Z,3.17
2023-12-09T02:05:21.129Z,3.47
2023-12-09T02:10:29.846Z,3.00
2023-12-09T02:15:43.944Z,3.20
2023-12-09T02:20:49.793Z,2.70
2023-12-09T02:26:04.697Z,3.00
2023-12-09T02:31:15.930Z,2.60
2023-12-09T02:36:26.135Z,2.75
2023-12-09T02:41:35.338Z,2.15
2023-12-09T02:46:41.068Z,2.53
2023-12-09T02:51:47.071Z,2.13
2023-12-09T02:56:55.287Z,2.13
2023-12-09T03:02:01.158Z,2.08
2023-12-09T03:07:07.141Z,2.20
2023-12-09T03:12:15.979Z,2.60
2023-12-09T03:17:22.800Z,2.50
2023-12-09T03:22:28.632Z,2.43
2023-12-09T03:27:37.491Z,2.67
2023-12-09T03:32:43.579Z,2.47
2023-12-09T03:37:49.230Z,3.03
2023-12-09T03:42:57.415Z,2.70
2023-12-09T03:48:03.269Z,3.10
2023-12-09T03:53:09.173Z,2.90
2023-12-09T03:58:17.925Z,3.60
2023-12-09T04:03:23.614Z,2.97
2023-12-09T04:08:29.939Z,2.63
2023-12-09T04:13:38.291Z,3.07
2023-12-09T04:18:44.276Z,2.55
2023-12-09T04:23:50.024Z,1.80
2023-12-09T04:28:58.722Z,3.27
2023-12-09T04:34:04.398Z,2.65
2023-12-09T04:39:10.548Z,3.70
2023-12-09T04:44:18.824Z,2.03
2023-12-09T04:49:25.255Z,2.20
2023-12-09T04:54:32.198Z,2.40
2023-12-09T04:59:40.855Z,2.55
2023-12-09T05:04:49.166Z,2.97
2023-12-09T05:09:54.854Z,2.45
2023-12-09T05:15:04.518Z,2.28
2023-12-09T05:20:12.375Z,2.80
2023-12-09T05:25:18.246Z,2.63
2023-12-09T05:30:26.995Z,3.20
2023-12-09T05:35:32.767Z,3.03
2023-12-09T05:40:38.545Z,2.92
2023-12-09T05:45:47.603Z,2.83
2023-12-09T05:50:53.428Z,3.60
2023-12-09T05:55:59.117Z,3.17
2023-12-09T06:01:08.024Z,3.10
2023-12-09T06:06:14.680Z,2.92
2023-12-09T06:11:20.561Z,3.73
2023-12-09T06:16:32.230Z,3.70
2023-12-09T06:21:38.016Z,3.53
2023-12-09T06:26:47.377Z,3.20
2023-12-09T06:31:55.601Z,3.08
2023-12-09T06:37:01.332Z,2.93
2023-12-09T06:42:08.040Z,3.20
2023-12-09T06:47:17.072Z,2.43
2023-12-09T06:52:22.834Z,2.75
2023-12-09T06:57:30.386Z,2.25
2023-12-09T07:02:48.824Z,2.23
2023-12-09T07:08:03.464Z,2.40
2023-12-09T07:13:09.140Z,2.00
2023-12-09T07:18:20.029Z,2.08
2023-12-09T07:23:27.087Z,1.83
2023-12-09T07:28:32.946Z,1.80
2023-12-09T07:33:41.356Z,2.13
2023-12-09T07:38:47.206Z,2.20
2023-12-09T07:43:53.155Z,1.88
2023-12-09T07:49:04.202Z,2.40
2023-12-09T07:54:11.132Z,1.48
2023-12-09T07:59:18.505Z,2.05
2023-12-09T08:04:27.278Z,1.90
2023-12-09T08:09:33.112Z,1.52
2023-12-09T08:14:40.901Z,1.85
2023-12-09T08:19:49.278Z,2.27
2023-12-09T08:24:55.255Z,1.80
2023-12-09T08:30:01.028Z,1.90
2023-12-09T08:35:11.834Z,1.50
2023-12-09T08:40:18.679Z,1.63
2023-12-09T08:45:25.569Z,1.43
2023-12-09T08:50:34.074Z,1.75
2023-12-09T08:55:40.172Z,1.67
2023-12-09T09:00:48.383Z,1.98
2023-12-09T09:05:57.794Z,2.10
2023-12-09T09:11:05.234Z,2.30
2023-12-09T09:16:11.158Z,1.83
2023-12-09T09:21:20.612Z,1.67
2023-12-09T09:26:26.288Z,1.85
2023-12-09T09:31:32.135Z,1.80
2023-12-09T09:36:41.130Z,2.03
2023-12-09T09:42:06.079Z,1.80
2023-12-09T09:47:14.332Z,1.63
2023-12-09T09:52:25.690Z,1.63
2023-12-09T09:57:34.955Z,1.63
2023-12-09T10:02:41.880Z,1.77
2023-12-09T10:07:50.917Z,1.92
2023-12-09T10:12:58.867Z,2.00
2023-12-09T10:18:08.355Z,2.05
2023-12-09T10:23:17.052Z,1.88
2023-12-09T10:28:24.874Z,1.33
2023-12-09T10:33:32.663Z,1.55
2023-12-09T10:38:45.755Z,1.73
2023-12-09T10:43:51.459Z,2.22
2023-12-09T10:48:59.111Z,1.60
2023-12-09T10:54:08.328Z,2.20
2023-12-09T10:59:15.090Z,1.88
2023-12-09T11:04:21.006Z,2.07
2023-12-09T11:09:30.239Z,1.40
2023-12-09T11:14:36.407Z,2.08
2023-12-09T11:19:42.377Z,1.93
2023-12-09T11:24:51.645Z,1.48
2023-12-09T11:29:57.826Z,2.17
2023-12-09T11:35:05.155Z,2.20
2023-12-09T11:40:14.979Z,1.80
2023-12-09T11:45:20.704Z,1.93
2023-12-09T11:50:26.338Z,1.55
2023-12-09T11:55:34.397Z,2.07
2023-12-09T12:00:40.055Z,1.80
2023-12-09T12:05:45.717Z,1.50
2023-12-09T12:10:54.192Z,1.93
2023-12-09T12:15:59.943Z,2.03
2023-12-09T12:21:07.057Z,1.87
2023-12-09T12:26:15.625Z,1.50
2023-12-09T12:31:22.385Z,1.33
2023-12-09T12:36:28.607Z,2.47
2023-12-09T12:41:37.056Z,3.55
2023-12-09T12:46:42.961Z,2.20
2023-12-09T12:51:49.541Z,1.45
2023-12-09T12:56:57.945Z,1.70
2023-12-09T13:02:04.135Z,1.70
2023-12-09T13:07:09.933Z,1.92
2023-12-09T13:12:19.501Z,1.30
2023-12-09T13:17:25.679Z,1.83
2023-12-09T13:22:32.199Z,1.60
2023-12-09T13:27:40.718Z,1.37
2023-12-09T13:32:47.158Z,1.77
2023-12-09T13:37:53.565Z,2.30
2023-12-09T13:43:02.377Z,2.05
2023-12-09T13:48:08.561Z,2.00
2023-12-09T13:53:14.276Z,2.53
2023-12-09T13:58:22.860Z,2.67
2023-12-09T14:03:28.527Z,3.17
2023-12-09T14:08:35.463Z,3.65
2023-12-09T14:13:43.841Z,3.03
2023-12-09T14:18:49.819Z,2.80
2023-12-09T14:23:55.850Z,2.67
2023-12-09T14:29:04.485Z,2.33
2023-12-09T14:34:10.335Z,2.22
2023-12-09T14:39:17.884Z,2.13
2023-12-09T14:44:26.342Z,2.50
2023-12-09T14:49:32.280Z,2.90
2023-12-09T14:54:38.027Z,2.50
2023-12-09T14:59:46.589Z,2.38
2023-12-09T15:04:52.328Z,2.05
2023-12-09T15:09:58.043Z,2.13
2023-12-09T15:15:07.644Z,2.60
2023-12-09T15:20:14.241Z,2.07
2023-12-09T15:25:21.415Z,1.80
2023-12-09T15:30:31.435Z,2.45
2023-12-09T15:35:38.442Z,1.93
2023-12-09T15:40:45.116Z,1.58
2023-12-09T15:45:56.098Z,1.60
2023-12-09T15:51:03.298Z,1.05
2023-12-09T15:56:11.070Z,1.55
2023-12-09T16:01:19.206Z,1.30
2023-12-09T16:06:27.045Z,1.13
2023-12-09T16:11:32.806Z,1.90
2023-12-09T16:16:41.221Z,1.80
2023-12-09T16:21:47.863Z,1.38
2023-12-09T16:26:53.463Z,1.33
2023-12-09T16:32:02.005Z,1.70
2023-12-09T16:37:07.684Z,1.40
2023-12-09T16:42:13.283Z,1.52
2023-12-09T16:47:21.580Z,1.50
2023-12-09T16:52:27.424Z,1.63
2023-12-09T16:57:36.502Z,1.23
2023-12-09T17:02:45.341Z,1.30
2023-12-09T17:07:51.323Z,1.33
2023-12-09T17:12:57.527Z,1.23
2023-12-09T17:18:07.169Z,1.40
2023-12-09T17:23:15.920Z,1.70
2023-12-09T17:28:21.843Z,1.90
2023-12-09T17:33:30.268Z,1.75
2023-12-09T17:38:36.427Z,2.17
2023-12-09T17:43:41.948Z,1.90
2023-12-09T17:48:50.319Z,2.08
2023-12-09T17:53:55.926Z,2.43
2023-12-09T17:59:02.256Z,1.58
2023-12-09T18:04:13.607Z,2.20
2023-12-09T18:09:19.257Z,1.80
2023-12-09T18:14:24.803Z,1.90
2023-12-09T18:19:33.726Z,2.63
2023-12-09T18:24:40.446Z,2.60
2023-12-09T18:29:46.631Z,2.90
2023-12-09T18:34:54.779Z,2.17
2023-12-09T18:40:00.828Z,2.10
2023-12-09T18:45:08.665Z,2.97
2023-12-09T18:50:17.181Z,2.90
2023-12-09T18:55:23.188Z,2.92
2023-12-09T19:00:28.943Z,2.50
2023-12-09T19:05:37.411Z,2.50
2023-12-09T19:10:43.713Z,2.70
2023-12-09T19:15:49.879Z,2.63
2023-12-09T19:20:58.243Z,3.20
2023-12-09T19:26:04.343Z,3.20
2023-12-09T19:31:10.141Z,5.28
2023-12-09T19:36:19.928Z,5.40
2023-12-09T19:41:26.394Z,4.70
2023-12-09T19:46:32.638Z,5.00
2023-12-09T19:51:41.300Z,4.10
2023-12-09T19:56:47.003Z,4.30
2023-12-09T20:01:56.172Z,5.37
2023-12-09T20:07:05.179Z,4.80
2023-12-09T20:12:11.695Z,5.43
2023-12-09T20:17:20.510Z,4.30
2023-12-09T20:22:29.744Z,4.20
2023-12-09T20:27:36.315Z,3.27
2023-12-09T20:32:42.511Z,3.25
2023-12-09T20:37:51.504Z,2.65
2023-12-09T20:42:57.406Z,2.67
2023-12-09T20:48:03.233Z,4.13
2023-12-09T20:53:12.877Z,3.37
2023-12-09T20:58:18.428Z,3.10
2023-12-09T21:03:24.422Z,2.92
2023-12-09T21:08:35.739Z,2.40
2023-12-09T21:13:42.009Z,1.98
2023-12-09T21:18:48.755Z,2.67
2023-12-09T21:23:57.392Z,2.45
2023-12-09T21:29:03.673Z,2.42
2023-12-09T21:34:09.629Z,2.20
2023-12-09T21:39:18.283Z,2.30
2023-12-09T21:44:24.308Z,2.77
2023-12-09T21:49:30.500Z,2.63
2023-12-09T21:54:39.374Z,3.00
2023-12-09T21:59:45.802Z,2.33
2023-12-09T22:04:51.864Z,2.75
2023-12-09T22:10:00.316Z,2.30
2023-12-09T22:15:07.435Z,3.15
2023-12-09T22:20:13.938Z,2.95
2023-12-09T22:25:22.407Z,2.60
2023-12-09T22:30:28.427Z,2.42
2023-12-09T22:35:35.307Z,2.43
2023-12-09T22:40:44.593Z,2.88
2023-12-09T22:45:50.606Z,2.13
2023-12-09T22:50:57.233Z,2.70
2023-12-09T22:56:12.931Z,2.45
2023-12-09T23:01:24.435Z,3.00
2023-12-09T23:06:30.616Z,2.92
2023-12-09T23:11:39.246Z,3.53
2023-12-09T23:16:46.443Z,2.83
2023-12-09T23:21:52.493Z,3.60
2023-12-09T23:27:01.038Z,2.87
2023-12-09T23:32:07.527Z,3.53
2023-12-09T23:37:13.367Z,2.90
2023-12-09T23:42:22.029Z,3.53
2023-12-09T23:47:28.150Z,2.88
2023-12-09T23:52:33.937Z,3.70
2023-12-09T23:57:42.720Z,3.15
